• Join FlightAware (Why Join?)
  • Login
  • US Flag 
07:34PM EDT


 

Airport Tracker/Info


-or-


 

Live Flight TrackerFlight Track Log ✈ SWA2150 ✈ 02-Dec-2013 ✈ KPHX - KRNO

Flight Track Log - Related Links

Times and Time Zones

All times are in EST time to prevent confusion due to time zone crossing. See the SWA2150 flight status page for this flight to view local times or setup timezone preferences in your user account.

Time Position Orientation Groundspeed Altitude Reporting Facility
EST Latitude Longitude Course Direction KTS MPH feet Rate Location/Type
02:25PM 33.4333 -111.9833 90° East 166 191 2,100  Level Phoenix TRACON
02:26PM 33.4333 -111.9333 90° East 184 212 3,200 1,680 Climbing Phoenix TRACON
02:27PM 33.4333 -111.8667 90° East 265 305 5,000 2,520 Climbing Phoenix TRACON
02:28PM 33.5167 -111.8333 18° North 279 321 8,300 3,000 Climbing Phoenix TRACON
02:29PM 33.5667 -111.9000 312° West 302 348 11,100 2,700 Climbing Phoenix TRACON
02:30PM 33.6650 -111.9847 324° Northwest 348 400 14,600 2,760 Climbing Albuquerque Center
02:31PM 33.7444 -112.0608 321° Northwest 359 413 17,700 2,820 Climbing Albuquerque Center
02:32PM 33.8264 -112.1400 321° Northwest 372 428 20,500 2,460 Climbing Albuquerque Center
02:33PM 33.9117 -112.2217 322° Northwest 385 443 22,900 2,160 Climbing Albuquerque Center
02:34PM 34.0003 -112.3081 321° Northwest 403 464 25,100 1,980 Climbing Albuquerque Center
02:35PM 34.1006 -112.3803 329° Northwest 416 479 27,100 2,040 Climbing Albuquerque Center
02:36PM 34.2308 -112.4583 334° Northwest 432 497 29,300 2,100 Climbing Albuquerque Center
02:38PM 34.3733 -112.6581 311° West 406 467 33,700 1,500 Climbing Los Angeles Center
02:39PM 34.4303 -112.7650 303° West 391 450 34,000 120 Climbing Los Angeles Center
02:40PM 34.4967 -112.8906 303° West 377 434 34,000 720 Level Los Angeles Center
02:41PM 34.5506 -112.9969 302° West 375 432 35,500 1,860 Climbing Albuquerque Center
02:42PM 34.6033 -113.0986 302° West 365 420 37,900 1,200 Climbing Albuquerque Center
02:43PM 34.6497 -113.1908 301° West 334 384 38,000  Climbing Albuquerque Center
02:44PM 34.6981 -113.2856 302° West 330 380 38,000  Level Albuquerque Center
02:45PM 34.7450 -113.3803 301° West 327 376 38,000  Level Albuquerque Center
02:46PM 34.8022 -113.4947 301° West 329 379 38,000  Level Albuquerque Center
02:47PM 34.8517 -113.5900 302° West 332 382 38,000  Level Albuquerque Center
02:48PM 34.9003 -113.6869 301° West 334 384 38,000  Level Albuquerque Center
02:49PM 34.9472 -113.7833 301° West 333 383 38,000  Level Albuquerque Center
02:51PM 34.9958 -113.8808 301° West 334 384 38,000  Level Albuquerque Center
02:52PM 35.0444 -113.9800 301° West 340 391 38,000  Level Albuquerque Center
02:53PM 35.1006 -114.0942 301° West 344 396 38,000  Level Albuquerque Center
02:54PM 35.1508 -114.1958 301° West 348 400 38,000  Level Albuquerque Center
02:55PM 35.2233 -114.3394 302° West 354 407 38,000  Level Los Angeles Center
02:56PM 35.2742 -114.4458 300° West 361 415 38,000  Level Los Angeles Center
02:57PM 35.3261 -114.5533 301° West 366 421 38,000  Level Los Angeles Center
02:58PM 35.3789 -114.6622 301° West 370 426 38,000  Level Los Angeles Center
02:59PM 35.4331 -114.7711 301° West 374 430 38,000  Level Los Angeles Center
03:00PM 35.5008 -114.8747 309° West 392 451 38,000  Level Los Angeles Center
03:01PM 35.5872 -114.9961 311° West 393 452 38,000 -420 Level Los Angeles Center
03:02PM 35.6597 -115.0994 311° West 399 459 37,200 -840 Descending Los Angeles Center
03:03PM 35.7339 -115.2039 311° West 403 464 36,300 -600 Descending Los Angeles Center
03:04PM 35.8094 -115.3089 312° West 407 468 36,000 -180 Descending Los Angeles Center
03:05PM 35.8822 -115.4136 311° West 404 465 36,000  Level Los Angeles Center
03:06PM 35.9550 -115.5175 311° West 400 460 36,000  Level Los Angeles Center
03:07PM 36.0269 -115.6208 311° West 396 456 36,000  Level Los Angeles Center
03:08PM 36.1142 -115.7469 311° West 397 457 36,000  Level Los Angeles Center
03:09PM 36.1872 -115.8528 311° West 400 460 36,000 -480 Level Los Angeles Center
03:10PM 36.2553 -115.9503 311° West 398 458 35,100 -960 Descending Los Angeles Center
03:11PM 36.3286 -116.0553 311° West 401 461 34,100 -540 Descending Los Angeles Center
03:13PM 36.3992 -116.1597 310° West 398 458 34,000 -60 Descending Los Angeles Center
03:14PM 36.4908 -116.2894 311° West 394 453 34,000  Level Los Angeles Center
03:15PM 36.5692 -116.4061 310° West 391 450 34,000  Level Los Angeles Center
03:16PM 36.6397 -116.5114 310° West 394 453 34,000  Level Los Angeles Center
03:17PM 36.7094 -116.6125 311° West 389 448 34,000  Level Los Angeles Center
03:18PM 36.7789 -116.7183 309° West 392 451 34,000  Level Los Angeles Center
03:19PM 36.8742 -116.8289 317° Northwest 390 449 34,000  Level Los Angeles Center
03:20PM 36.9703 -116.9381 318° Northwest 388 447 34,000  Level Los Angeles Center
03:21PM 37.0517 -117.0294 318° Northwest 392 451 34,000  Level Los Angeles Center
03:22PM 37.1317 -117.1208 318° Northwest 391 450 34,000  Level Los Angeles Center
03:23PM 37.2122 -117.2119 318° Northwest 389 448 34,000  Level Los Angeles Center
03:24PM 37.2919 -117.3025 318° Northwest 388 447 34,000  Level Los Angeles Center
03:25PM 37.3756 -117.3928 319° Northwest 394 453 34,000 -480 Level Los Angeles Center
03:26PM 37.4414 -117.4633 320° Northwest 391 450 33,200 -1,020 Descending Oakland Center
03:27PM 37.5256 -117.5467 322° Northwest 388 447 32,200 -600 Descending Oakland Center
03:28PM 37.6206 -117.6203 328° Northwest 398 458 32,000 -120 Descending Oakland Center
03:29PM 37.7119 -117.6936 328° Northwest 391 450 32,000  Level Oakland Center
03:30PM 37.8053 -117.7667 328° Northwest 390 449 32,000 -360 Level Oakland Center
03:31PM 37.9158 -117.8544 328° Northwest 388 447 31,300 -840 Descending Oakland Center
03:32PM 38.0067 -117.9267 328° Northwest 383 441 30,300 -1,020 Descending Oakland Center
03:33PM 38.0950 -117.9972 328° Northwest 374 430 29,200 -1,080 Descending Oakland Center
03:34PM 38.1806 -118.0681 327° Northwest 366 421 28,200 -600 Descending Oakland Center
03:35PM 38.2631 -118.1322 329° Northwest 360 414 28,000 -120 Descending Oakland Center
03:36PM 38.3478 -118.2028 327° Northwest 363 418 28,000  Level Oakland Center
03:37PM 38.4308 -118.2733 326° Northwest 359 413 28,000  Level Oakland Center
03:38PM 38.5006 -118.3636 315° West 357 411 28,000  Level Oakland Center
03:39PM 38.5844 -118.4661 316° Northwest 348 400 28,000  Level Oakland Center
03:40PM 38.6547 -118.5525 316° Northwest 349 402 28,000  Level Oakland Center
03:42PM 38.7281 -118.6433 316° Northwest 363 418 28,000 -300 Level Oakland Center
03:43PM 38.7989 -118.7328 315° West 359 413 27,500 -840 Descending Oakland Center
03:44PM 38.8667 -118.8192 315° West 346 398 26,400 -1,260 Descending Oakland Center
03:45PM 38.9347 -118.9017 317° Northwest 336 387 25,000 -1,560 Descending Oakland Center
03:46PM 38.9978 -118.9814 316° Northwest 322 371 23,200 -1,860 Descending Oakland Center
03:47PM 39.0594 -119.0583 316° Northwest 310 357 21,300 -1,860 Descending Oakland Center
03:48PM 39.1194 -119.1342 316° Northwest 304 350 19,500 -1,860 Descending Oakland Center
03:49PM 39.1875 -119.2211 315° West 288 331 17,500 -1,980 Descending Oakland Center
03:50PM 39.2511 -119.3003 316° Northwest 311 358 15,500 -1,740 Descending Oakland Center
03:51PM 39.3144 -119.3811 315° West 319 367 14,000 -780 Descending Oakland Center
03:52PM 39.3683 -119.4439 318° Northwest 278 320 14,000  Level Oakland Center
03:53PM 39.4208 -119.4928 324° Northwest 240 276 14,000  Level Oakland Center
03:54PM 39.4669 -119.5353 325° Northwest 216 249 14,000  Level Oakland Center
03:55PM 39.5236 -119.5550 345° North 233 268 14,100  Climbing Oakland Center
03:56PM 39.5822 -119.5686 350° North 219 252 14,000 -720 Descending Oakland Center
03:57PM 39.6428 -119.5886 346° North 218 251 12,700 -1,500 Descending Oakland Center
03:58PM 39.6833 -119.6431 314° West 220 253 10,900 -1,320 Descending Oakland Center
03:59PM 39.6772 -119.7100 263° West 192 221 10,000 -1,200 Descending Oakland Center
04:00PM 39.6672 -119.7564 254° West 171 197 8,500 -900 Descending Oakland Center
04:01PM 39.6331 -119.7872 215° Southwest 168 193 8,200 -1,320 Descending Oakland Center
04:02PM 39.5667 -119.7667 167° South 155 178 5,500 -1,560 Descending Northern Cal TRACON
04:03PM 39.5167 -119.7667 180° South 150 173 4,700 -840 Descending Northern Cal TRACON